Time;durP1;ratioP1;P1;durP2;ratioP2;P2;SDS_P1;SDS_P2;PMS_P1;PMS_P2;Temp;Humidity;BMP_temperature;BMP_pressure;BME280_temperature;BME280_humidity;BME280_pressure;Samples;Min_cycle;Max_cycle;Signal;HPM_P1;HPM_P2
2021/07/15 00:01:46;;;;;;;14.55;7.35;;;;;;;;;;5036446;28;20431;-66
2021/07/15 00:04:13;;;;;;;24.38;7.80;;;;;;;;;;5036281;28;20040;-69
2021/07/15 00:06:40;;;;;;;18.75;7.13;;;;;;;;;;5036369;28;20104;-67
2021/07/15 00:09:06;;;;;;;14.10;6.22;;;;;;;;;;5035826;28;20492;-68
2021/07/15 00:11:37;;;;;;;15.05;6.85;;;;;;;;;;5035912;28;20501;-66
2021/07/15 00:14:04;;;;;;;16.40;6.63;;;;;;;;;;5036097;28;20041;-67
2021/07/15 00:16:30;;;;;;;17.20;6.00;;;;;;;;;;5034665;28;20360;-69
2021/07/15 00:18:57;;;;;;;30.67;6.00;;;;;;;;;;5035836;28;20049;-68
2021/07/15 00:21:24;;;;;;;12.40;6.03;;;;;;;;;;5036010;28;20056;-69
2021/07/15 00:23:50;;;;;;;17.73;6.13;;;;;;;;;;5036019;28;20021;-69
2021/07/15 00:26:17;;;;;;;15.38;6.32;;;;;;;;;;5035704;28;20154;-68
2021/07/15 00:28:44;;;;;;;17.60;6.85;;;;;;;;;;5035647;28;20071;-67
2021/07/15 00:31:11;;;;;;;20.40;7.22;;;;;;;;;;5035716;28;20021;-68
2021/07/15 00:33:37;;;;;;;16.70;6.10;;;;;;;;;;5035552;28;20497;-68
2021/07/15 00:36:03;;;;;;;24.83;6.90;;;;;;;;;;5035534;28;20045;-67
2021/07/15 00:38:30;;;;;;;16.95;5.63;;;;;;;;;;5035155;28;20450;-67
2021/07/15 00:40:57;;;;;;;21.27;6.72;;;;;;;;;;5035723;28;20018;-71
2021/07/15 00:43:23;;;;;;;16.88;6.28;;;;;;;;;;5034595;28;20033;-68
2021/07/15 00:45:50;;;;;;;14.35;5.97;;;;;;;;;;5033758;28;20136;-70
2021/07/15 00:48:16;;;;;;;16.67;6.95;;;;;;;;;;5035889;28;20108;-70
2021/07/15 00:50:43;;;;;;;21.48;6.05;;;;;;;;;;5035597;28;20037;-69
2021/07/15 00:53:09;;;;;;;19.23;6.80;;;;;;;;;;5035182;28;20101;-69
2021/07/15 00:55:38;;;;;;;22.65;6.65;;;;;;;;;;5035061;28;20025;-68
2021/07/15 00:58:08;;;;;;;17.50;6.93;;;;;;;;;;5033906;28;20462;-69
2021/07/15 01:00:35;;;;;;;17.27;6.22;;;;;;;;;;5035075;28;20021;-69
2021/07/15 01:03:01;;;;;;;20.13;6.43;;;;;;;;;;5035142;28;20496;-69
2021/07/15 01:05:29;;;;;;;25.95;6.13;;;;;;;;;;5035208;28;20160;-68
2021/07/15 01:07:56;;;;;;;19.85;6.13;;;;;;;;;;5034890;28;20537;-67
2021/07/15 01:10:27;;;;;;;14.52;6.10;;;;;;;;;;5035028;28;20125;-68
2021/07/15 01:13:12;;;;;;;16.63;6.05;;;;;;;;;;5034851;28;20094;-68
2021/07/15 01:15:40;;;;;;;17.45;6.53;;;;;;;;;;5034708;28;20452;-70
2021/07/15 01:18:16;;;;;;;15.93;5.45;;;;;;;;;;5034745;28;20099;-68
2021/07/15 01:20:43;;;;;;;18.52;5.95;;;;;;;;;;5035170;28;20036;-70
2021/07/15 01:23:18;;;;;;;25.73;6.63;;;;;;;;;;5033572;28;20421;-65
2021/07/15 01:25:47;;;;;;;19.63;5.75;;;;;;;;;;5034585;28;20351;-69
2021/07/15 01:28:31;;;;;;;19.65;5.70;;;;;;;;;;5034801;28;20049;-68
2021/07/15 01:31:02;;;;;;;18.88;6.75;;;;;;;;;;5034309;28;20390;-67
2021/07/15 01:33:29;;;;;;;16.92;5.35;;;;;;;;;;5034745;28;20013;-70
2021/07/15 01:35:59;;;;;;;23.90;6.57;;;;;;;;;;5034435;28;20025;-68
2021/07/15 01:38:26;;;;;;;23.10;6.45;;;;;;;;;;5034421;28;20124;-69
2021/07/15 01:41:00;;;;;;;15.07;6.55;;;;;;;;;;5033271;28;20378;-68
2021/07/15 01:43:30;;;;;;;22.33;6.47;;;;;;;;;;5032742;28;20025;-68
2021/07/15 01:45:56;;;;;;;23.52;5.55;;;;;;;;;;5033899;28;20049;-68
2021/07/15 01:48:23;;;;;;;16.17;6.30;;;;;;;;;;5034324;28;20443;-66
2021/07/15 01:50:49;;;;;;;15.85;5.72;;;;;;;;;;5034256;28;20021;-67
2021/07/15 01:53:15;;;;;;;17.63;6.03;;;;;;;;;;5034102;28;20152;-69
2021/07/15 01:55:42;;;;;;;13.88;5.18;;;;;;;;;;5033764;28;20065;-67
2021/07/15 01:58:09;;;;;;;19.63;5.82;;;;;;;;;;5034063;28;20108;-66
2021/07/15 02:00:36;;;;;;;21.85;5.30;;;;;;;;;;5034130;28;20378;-67
2021/07/15 02:03:04;;;;;;;15.05;5.22;;;;;;;;;;5034208;28;20104;-67
2021/07/15 02:05:32;;;;;;;23.30;5.75;;;;;;;;;;5033955;28;20021;-67
2021/07/15 02:07:58;;;;;;;17.73;5.70;;;;;;;;;;5033582;28;20393;-68
2021/07/15 02:10:26;;;;;;;20.48;6.25;;;;;;;;;;5034053;28;20025;-68
2021/07/15 02:12:53;;;;;;;21.02;5.72;;;;;;;;;;5033932;28;20018;-68
2021/07/15 02:15:19;;;;;;;16.02;6.22;;;;;;;;;;5033721;28;20032;-67
2021/07/15 02:17:47;;;;;;;19.42;6.75;;;;;;;;;;5033862;28;20024;-69
2021/07/15 02:20:15;;;;;;;14.32;6.13;;;;;;;;;;5033876;28;20026;-68
2021/07/15 02:22:41;;;;;;;20.92;7.07;;;;;;;;;;5033803;28;20025;-69
2021/07/15 02:25:08;;;;;;;22.67;6.95;;;;;;;;;;5033884;28;20377;-68
2021/07/15 02:27:35;;;;;;;21.83;6.90;;;;;;;;;;5033696;28;20029;-67
2021/07/15 02:30:01;;;;;;;19.83;7.70;;;;;;;;;;5033635;28;20029;-69
2021/07/15 02:32:28;;;;;;;15.10;7.22;;;;;;;;;;5033625;28;20096;-69
2021/07/15 02:35:02;;;;;;;19.35;7.35;;;;;;;;;;5033793;28;20060;-67
2021/07/15 02:37:31;;;;;;;27.20;7.75;;;;;;;;;;5033597;28;20021;-67
2021/07/15 02:39:57;;;;;;;22.15;7.38;;;;;;;;;;5033547;28;20017;-68
2021/07/15 02:42:23;;;;;;;21.10;7.22;;;;;;;;;;5033837;28;20036;-68
2021/07/15 02:44:50;;;;;;;17.27;7.15;;;;;;;;;;5033745;28;20112;-68
2021/07/15 02:47:18;;;;;;;23.65;7.70;;;;;;;;;;5032912;28;20494;-69
2021/07/15 02:49:45;;;;;;;21.17;6.40;;;;;;;;;;5033533;28;20033;-67
2021/07/15 02:52:11;;;;;;;17.85;6.93;;;;;;;;;;5033518;28;20072;-66
2021/07/15 02:54:38;;;;;;;15.77;6.15;;;;;;;;;;5033429;28;20018;-68
2021/07/15 02:57:10;;;;;;;29.45;7.43;;;;;;;;;;5033387;28;20557;-67
2021/07/15 02:59:43;;;;;;;20.75;6.63;;;;;;;;;;5033181;28;20029;-68
2021/07/15 03:02:30;;;;;;;27.88;6.97;;;;;;;;;;5033527;28;20207;-68
2021/07/15 03:05:05;;;;;;;14.57;6.05;;;;;;;;;;5033553;28;20413;-67
2021/07/15 03:07:36;;;;;;;18.45;6.57;;;;;;;;;;5033756;28;20466;-68
2021/07/15 03:10:07;;;;;;;22.42;6.45;;;;;;;;;;5037374;28;20025;-66
2021/07/15 03:12:37;;;;;;;15.70;6.60;;;;;;;;;;5037138;28;20510;-67
2021/07/15 03:15:04;;;;;;;17.67;6.32;;;;;;;;;;5037212;28;20037;-69
2021/07/15 03:17:34;;;;;;;23.10;7.15;;;;;;;;;;5037301;28;20492;-66
2021/07/15 03:20:04;;;;;;;16.02;6.20;;;;;;;;;;5037009;28;20030;-68
2021/07/15 03:22:30;;;;;;;19.35;6.63;;;;;;;;;;5036994;28;20022;-70
2021/07/15 03:24:59;;;;;;;20.98;6.30;;;;;;;;;;5036872;28;20040;-69
2021/07/15 03:27:26;;;;;;;28.52;6.78;;;;;;;;;;5036809;28;20029;-68
2021/07/15 03:29:54;;;;;;;18.70;6.38;;;;;;;;;;5037080;28;20071;-68
2021/07/15 03:32:21;;;;;;;20.25;6.75;;;;;;;;;;5036840;28;20025;-69
2021/07/15 03:34:49;;;;;;;18.23;6.50;;;;;;;;;;5036627;28;20116;-69
2021/07/15 03:37:16;;;;;;;17.60;7.38;;;;;;;;;;5036757;28;20068;-69
2021/07/15 03:39:45;;;;;;;21.83;7.13;;;;;;;;;;5036620;28;20026;-68
2021/07/15 03:42:12;;;;;;;21.40;6.78;;;;;;;;;;5036635;28;20470;-68
2021/07/15 03:44:39;;;;;;;20.27;6.97;;;;;;;;;;5036957;28;20029;-69
2021/07/15 03:47:06;;;;;;;24.02;6.95;;;;;;;;;;5036205;28;20565;-68
2021/07/15 03:49:33;;;;;;;22.17;6.95;;;;;;;;;;5036479;28;20057;-68
2021/07/15 03:52:00;;;;;;;26.77;7.43;;;;;;;;;;5036126;28;20377;-66
2021/07/15 03:54:27;;;;;;;20.55;7.53;;;;;;;;;;5036230;28;20472;-67
2021/07/15 03:56:53;;;;;;;17.25;7.25;;;;;;;;;;5035992;28;20188;-66
2021/07/15 03:59:21;;;;;;;13.57;6.80;;;;;;;;;;5036252;28;20040;-69
2021/07/15 04:01:56;;;;;;;16.52;7.13;;;;;;;;;;5036292;28;20112;-69
2021/07/15 04:04:23;;;;;;;18.98;7.10;;;;;;;;;;5036242;28;20091;-67
2021/07/15 04:06:50;;;;;;;22.75;7.90;;;;;;;;;;5036297;28;20112;-68
2021/07/15 04:09:17;;;;;;;19.70;7.43;;;;;;;;;;5034792;28;20100;-68
2021/07/15 04:11:45;;;;;;;27.63;7.55;;;;;;;;;;5036037;28;20031;-67
2021/07/15 04:14:18;;;;;;;24.75;7.78;;;;;;;;;;5034634;28;20530;-66
2021/07/15 04:17:03;;;;;;;14.85;7.82;;;;;;;;;;5036042;28;20095;-67
2021/07/15 04:19:31;;;;;;;30.38;8.23;;;;;;;;;;5035651;28;20084;-66
2021/07/15 04:21:57;;;;;;;17.65;6.28;;;;;;;;;;5035964;28;20025;-68
2021/07/15 04:24:24;;;;;;;19.10;7.20;;;;;;;;;;5034496;28;20501;-69
2021/07/15 04:26:51;;;;;;;25.90;6.57;;;;;;;;;;5035989;28;20116;-69
2021/07/15 04:29:18;;;;;;;20.35;6.95;;;;;;;;;;5036000;28;20109;-67
2021/07/15 04:32:05;;;;;;;20.42;6.38;;;;;;;;;;5035772;28;20108;-66
2021/07/15 04:34:32;;;;;;;24.45;6.80;;;;;;;;;;5035565;28;20072;-68
2021/07/15 04:36:59;;;;;;;20.52;6.47;;;;;;;;;;5035698;28;20523;-68
2021/07/15 04:39:26;;;;;;;17.48;5.72;;;;;;;;;;5034210;28;20163;-69
2021/07/15 04:41:57;;;;;;;18.77;6.00;;;;;;;;;;5035539;28;20023;-66
2021/07/15 04:44:26;;;;;;;19.27;5.90;;;;;;;;;;5035400;28;20044;-69
2021/07/15 04:46:53;;;;;;;16.67;5.80;;;;;;;;;;5033504;28;20049;-67
2021/07/15 04:49:20;;;;;;;17.55;6.85;;;;;;;;;;5035324;28;20024;-67
2021/07/15 04:51:47;;;;;;;18.70;6.28;;;;;;;;;;5033990;28;20075;-69
2021/07/15 04:54:13;;;;;;;19.73;6.47;;;;;;;;;;5035119;28;20072;-67
2021/07/15 04:56:40;;;;;;;17.95;6.30;;;;;;;;;;5033862;28;20116;-69
2021/07/15 04:59:07;;;;;;;22.50;7.47;;;;;;;;;;5035089;28;20049;-67
2021/07/15 05:01:34;;;;;;;20.77;6.82;;;;;;;;;;5035090;28;20104;-70
2021/07/15 05:04:00;;;;;;;19.92;7.38;;;;;;;;;;5035007;28;20029;-71
2021/07/15 05:06:26;;;;;;;22.77;7.05;;;;;;;;;;5034907;28;20030;-67
2021/07/15 05:08:53;;;;;;;17.88;6.78;;;;;;;;;;5034932;28;20022;-68
2021/07/15 05:11:19;;;;;;;19.92;7.97;;;;;;;;;;5034806;28;20463;-69
2021/07/15 05:13:45;;;;;;;23.13;7.68;;;;;;;;;;5034944;28;20112;-66
2021/07/15 05:16:12;;;;;;;25.20;8.10;;;;;;;;;;5034720;28;20124;-68
2021/07/15 05:18:38;;;;;;;19.30;7.28;;;;;;;;;;5034746;28;20022;-68
2021/07/15 05:21:05;;;;;;;18.20;5.78;;;;;;;;;;5034427;28;20029;-68
2021/07/15 05:23:31;;;;;;;17.33;6.38;;;;;;;;;;5035061;28;20101;-70
2021/07/15 05:25:57;;;;;;;13.55;5.38;;;;;;;;;;5034678;28;20532;-67
2021/07/15 05:28:24;;;;;;;13.75;4.20;;;;;;;;;;5034556;28;20053;-69
2021/07/15 05:30:51;;;;;;;13.73;4.75;;;;;;;;;;5033911;28;20520;-67
2021/07/15 05:33:17;;;;;;;16.88;5.40;;;;;;;;;;5034475;28;20026;-69
2021/07/15 05:35:44;;;;;;;16.23;4.05;;;;;;;;;;5034259;28;20056;-69
2021/07/15 05:38:11;;;;;;;11.35;3.88;;;;;;;;;;5034410;28;20021;-68
2021/07/15 05:40:37;;;;;;;7.90;3.72;;;;;;;;;;5034221;28;20110;-70
2021/07/15 05:43:03;;;;;;;8.60;3.40;;;;;;;;;;5034047;28;20383;-66
2021/07/15 05:45:30;;;;;;;6.93;2.80;;;;;;;;;;5032959;28;20091;-69
2021/07/15 05:47:56;;;;;;;5.13;2.88;;;;;;;;;;5032815;28;20037;-68
2021/07/15 05:50:23;;;;;;;7.15;2.90;;;;;;;;;;5034184;28;20061;-70
2021/07/15 05:52:50;;;;;;;5.35;2.08;;;;;;;;;;5034463;28;20022;-67
2021/07/15 05:55:16;;;;;;;9.90;2.30;;;;;;;;;;5033990;28;20377;-67
2021/07/15 05:57:42;;;;;;;4.40;2.50;;;;;;;;;;5034332;28;20026;-66
2021/07/15 06:00:10;;;;;;;5.82;2.38;;;;;;;;;;5034110;28;20382;-69
2021/07/15 06:02:37;;;;;;;4.35;2.22;;;;;;;;;;5034319;28;20024;-69
2021/07/15 06:05:03;;;;;;;6.55;2.20;;;;;;;;;;5033657;28;20029;-68
2021/07/15 06:07:29;;;;;;;12.88;3.63;;;;;;;;;;5033910;28;20025;-66
2021/07/15 06:09:56;;;;;;;9.52;2.78;;;;;;;;;;5032542;28;20613;-67
2021/07/15 06:12:22;;;;;;;8.75;1.90;;;;;;;;;;5033820;28;20014;-68
2021/07/15 06:14:48;;;;;;;3.33;1.60;;;;;;;;;;5033465;28;20109;-68
2021/07/15 06:17:16;;;;;;;11.15;1.75;;;;;;;;;;5033752;28;20032;-69
2021/07/15 06:19:42;;;;;;;7.50;1.80;;;;;;;;;;5033796;28;20470;-70
2021/07/15 06:22:08;;;;;;;6.63;2.00;;;;;;;;;;5034044;28;20021;-67
2021/07/15 06:24:35;;;;;;;7.10;2.17;;;;;;;;;;5035373;28;20124;-66
2021/07/15 06:27:02;;;;;;;6.70;2.10;;;;;;;;;;5038238;28;20022;-67
2021/07/15 06:29:29;;;;;;;5.90;1.55;;;;;;;;;;5038199;28;20389;-68
2021/07/15 06:31:55;;;;;;;5.65;1.60;;;;;;;;;;5035319;28;20423;-67
2021/07/15 06:34:21;;;;;;;7.03;2.08;;;;;;;;;;5033406;28;20030;-67
2021/07/15 06:36:48;;;;;;;9.43;1.77;;;;;;;;;;5033518;28;20105;-69
2021/07/15 06:39:15;;;;;;;7.28;2.30;;;;;;;;;;5033635;28;20021;-67
2021/07/15 06:41:41;;;;;;;11.02;1.70;;;;;;;;;;5035658;28;20017;-67
2021/07/15 06:44:09;;;;;;;7.00;2.03;;;;;;;;;;5036381;28;20477;-66
2021/07/15 06:46:38;;;;;;;55.63;3.67;;;;;;;;;;5035260;28;20042;-68
2021/07/15 06:49:04;;;;;;;16.65;2.58;;;;;;;;;;5037560;28;20030;-69
2021/07/15 06:51:31;;;;;;;10.23;2.58;;;;;;;;;;5037151;28;20351;-68
2021/07/15 06:53:57;;;;;;;4.28;2.10;;;;;;;;;;5037432;28;20099;-67
2021/07/15 06:56:23;;;;;;;13.32;2.67;;;;;;;;;;5036151;28;20033;-68
2021/07/15 06:58:50;;;;;;;3.75;1.75;;;;;;;;;;5036123;28;20133;-67
2021/07/15 07:01:16;;;;;;;11.57;2.35;;;;;;;;;;5036136;28;20386;-68
2021/07/15 07:03:42;;;;;;;4.53;1.95;;;;;;;;;;5037330;28;20106;-68
2021/07/15 07:06:09;;;;;;;5.95;2.03;;;;;;;;;;5035991;28;20112;-69
2021/07/15 07:08:35;;;;;;;7.30;2.42;;;;;;;;;;5037167;28;20105;-71
2021/07/15 07:11:01;;;;;;;6.05;2.17;;;;;;;;;;5035842;28;20181;-67
2021/07/15 07:13:27;;;;;;;7.85;1.92;;;;;;;;;;5037601;28;20382;-68
2021/07/15 07:15:54;;;;;;;8.05;2.08;;;;;;;;;;5036914;28;20056;-66
2021/07/15 07:18:21;;;;;;;5.28;1.50;;;;;;;;;;5036997;28;20021;-67
2021/07/15 07:20:47;;;;;;;6.28;1.70;;;;;;;;;;5036928;28;20040;-70
2021/07/15 07:23:14;;;;;;;3.42;1.63;;;;;;;;;;5036677;28;20112;-67
2021/07/15 07:25:41;;;;;;;5.65;1.60;;;;;;;;;;5036939;28;20497;-68
2021/07/15 07:28:07;;;;;;;7.75;2.10;;;;;;;;;;5037009;28;20156;-67
2021/07/15 07:30:33;;;;;;;5.80;1.77;;;;;;;;;;5036745;28;20028;-69
2021/07/15 07:32:59;;;;;;;7.97;2.05;;;;;;;;;;5036624;28;20021;-67
2021/07/15 07:35:26;;;;;;;8.25;2.13;;;;;;;;;;5036581;28;20493;-68
2021/07/15 07:37:52;;;;;;;7.75;1.92;;;;;;;;;;5036810;28;20029;-69
2021/07/15 07:40:18;;;;;;;12.07;3.67;;;;;;;;;;5036784;28;20156;-67
2021/07/15 07:42:46;;;;;;;58.88;7.32;;;;;;;;;;5036660;28;20064;-68
2021/07/15 07:45:12;;;;;;;12.23;2.38;;;;;;;;;;5035181;28;20025;-66
2021/07/15 07:47:39;;;;;;;4.82;1.80;;;;;;;;;;5036603;28;20176;-68
2021/07/15 07:50:06;;;;;;;19.45;2.85;;;;;;;;;;5036405;28;20025;-68
2021/07/15 07:52:33;;;;;;;4.88;2.17;;;;;;;;;;5035583;28;20055;-67
2021/07/15 07:54:59;;;;;;;16.63;2.95;;;;;;;;;;5034982;28;20425;-67
2021/07/15 07:57:26;;;;;;;16.10;2.33;;;;;;;;;;5036619;28;20029;-68
2021/07/15 07:59:53;;;;;;;13.40;2.78;;;;;;;;;;5036224;28;20018;-67
2021/07/15 08:02:20;;;;;;;9.55;1.77;;;;;;;;;;5036225;28;20029;-70
2021/07/15 08:04:46;;;;;;;17.17;2.20;;;;;;;;;;5036284;28;20489;-69
2021/07/15 08:07:15;;;;;;;29.77;3.20;;;;;;;;;;5036418;28;20105;-69
2021/07/15 08:09:44;;;;;;;16.85;3.42;;;;;;;;;;5035170;28;20441;-71
2021/07/15 08:12:15;;;;;;;61.45;6.15;;;;;;;;;;5036378;28;20021;-70
2021/07/15 08:14:42;;;;;;;8.50;2.55;;;;;;;;;;5034668;28;20425;-67
2021/07/15 08:17:09;;;;;;;8.13;2.85;;;;;;;;;;5034530;28;20021;-68
2021/07/15 08:19:35;;;;;;;3.13;1.65;;;;;;;;;;5035834;28;20370;-68
2021/07/15 08:22:02;;;;;;;11.13;2.70;;;;;;;;;;5035822;28;20033;-67
2021/07/15 08:24:28;;;;;;;4.22;1.90;;;;;;;;;;5034682;28;20037;-66
2021/07/15 08:26:55;;;;;;;8.75;2.40;;;;;;;;;;5035703;28;20084;-67
2021/07/15 08:29:21;;;;;;;4.70;2.08;;;;;;;;;;5034541;28;20028;-71
2021/07/15 08:31:47;;;;;;;3.15;1.90;;;;;;;;;;5035746;28;20064;-68
2021/07/15 08:34:14;;;;;;;5.75;1.67;;;;;;;;;;5035764;28;20441;-68
2021/07/15 08:36:40;;;;;;;6.25;1.95;;;;;;;;;;5035603;28;20414;-68
2021/07/15 08:39:09;;;;;;;6.47;2.25;;;;;;;;;;5035565;28;20370;-67
2021/07/15 08:41:35;;;;;;;13.88;2.10;;;;;;;;;;5035378;28;20458;-70
2021/07/15 08:44:02;;;;;;;27.27;3.10;;;;;;;;;;5035423;28;20026;-69
2021/07/15 08:46:29;;;;;;;30.20;3.53;;;;;;;;;;5034780;28;20128;-67
2021/07/15 08:48:55;;;;;;;15.45;2.70;;;;;;;;;;5035288;28;20036;-68
2021/07/15 08:51:22;;;;;;;5.82;1.67;;;;;;;;;;5035212;28;20045;-67
2021/07/15 08:53:49;;;;;;;5.30;1.42;;;;;;;;;;5034125;28;20541;-68
2021/07/15 08:59:00;;;;;;;47.85;4.85;;;;;;;;;;5034838;28;20564;-66
2021/07/15 09:01:36;;;;;;;17.88;2.10;;;;;;;;;;5035040;28;20466;-68
2021/07/15 09:04:03;;;;;;;89.72;6.53;;;;;;;;;;5033470;28;20190;-69
2021/07/15 09:06:30;;;;;;;34.83;3.75;;;;;;;;;;5034573;28;20026;-67
2021/07/15 09:08:57;;;;;;;4.53;1.38;;;;;;;;;;5034985;28;20095;-67
2021/07/15 09:11:23;;;;;;;8.55;1.77;;;;;;;;;;5034869;28;20017;-69
2021/07/15 09:13:50;;;;;;;6.43;1.70;;;;;;;;;;5034918;28;20021;-68
2021/07/15 09:16:17;;;;;;;5.78;2.03;;;;;;;;;;5034880;28;20036;-68
2021/07/15 09:18:56;;;;;;;4.55;1.30;;;;;;;;;;5034799;28;20029;-68
2021/07/15 09:21:26;;;;;;;24.80;4.13;;;;;;;;;;5034879;28;20486;-67
2021/07/15 09:23:52;;;;;;;11.82;2.08;;;;;;;;;;5034410;28;20025;-67
2021/07/15 09:26:19;;;;;;;7.13;1.48;;;;;;;;;;5034340;28;20104;-69
2021/07/15 09:28:47;;;;;;;4.35;1.40;;;;;;;;;;5034505;28;20018;-69
2021/07/15 09:31:17;;;;;;;4.72;1.48;;;;;;;;;;5034508;28;20064;-68
2021/07/15 09:33:44;;;;;;;5.38;1.88;;;;;;;;;;5034191;28;20026;-68
2021/07/15 09:36:11;;;;;;;4.65;1.30;;;;;;;;;;5034334;28;20033;-69
2021/07/15 09:38:41;;;;;;;5.78;1.83;;;;;;;;;;5033356;28;20025;-69
2021/07/15 09:41:08;;;;;;;8.02;1.95;;;;;;;;;;5034171;28;20508;-69
2021/07/15 09:43:34;;;;;;;4.47;1.23;;;;;;;;;;5034578;28;20025;-67
2021/07/15 09:46:20;;;;;;;3.03;1.70;;;;;;;;;;5033968;28;20088;-67
2021/07/15 09:49:08;;;;;;;7.55;1.90;;;;;;;;;;5034264;28;20025;-70
2021/07/15 09:51:42;;;;;;;3.90;1.13;;;;;;;;;;5034240;28;20029;-68
2021/07/15 09:54:09;;;;;;;4.70;1.50;;;;;;;;;;5034124;28;20074;-70
2021/07/15 09:56:45;;;;;;;6.78;1.83;;;;;;;;;;5034047;28;20473;-70
2021/07/15 09:59:12;;;;;;;5.78;1.55;;;;;;;;;;5034088;28;20383;-69
2021/07/15 10:01:48;;;;;;;8.30;2.25;;;;;;;;;;5032307;28;20116;-69
2021/07/15 10:04:21;;;;;;;6.18;2.47;;;;;;;;;;5034136;28;20071;-67
2021/07/15 10:06:48;;;;;;;4.88;1.27;;;;;;;;;;5034067;28;20056;-67
2021/07/15 10:09:25;;;;;;;7.53;1.75;;;;;;;;;;5033855;28;20064;-70
2021/07/15 10:11:56;;;;;;;5.93;1.60;;;;;;;;;;5034097;28;20064;-70
2021/07/15 10:14:42;;;;;;;4.63;1.50;;;;;;;;;;5033864;28;20036;-71
2021/07/15 10:17:09;;;;;;;7.40;1.77;;;;;;;;;;5033656;28;20028;-67
2021/07/15 10:19:35;;;;;;;2.53;1.38;;;;;;;;;;5032782;28;20021;-71
2021/07/15 10:22:04;;;;;;;4.50;2.10;;;;;;;;;;5033848;28;20029;-66
2021/07/15 10:24:30;;;;;;;5.10;1.30;;;;;;;;;;5033837;28;20030;-67
2021/07/15 10:26:58;;;;;;;9.70;2.22;;;;;;;;;;5033709;28;20113;-68
2021/07/15 10:29:25;;;;;;;5.57;1.23;;;;;;;;;;5033775;28;20029;-70
2021/07/15 10:31:52;;;;;;;7.88;1.63;;;;;;;;;;5033874;28;20032;-69
2021/07/15 10:34:18;;;;;;;5.00;1.70;;;;;;;;;;5032455;28;20033;-67
2021/07/15 10:36:45;;;;;;;4.68;1.50;;;;;;;;;;5033578;28;20035;-70
2021/07/15 10:39:13;;;;;;;9.18;1.48;;;;;;;;;;5033587;28;20021;-69
2021/07/15 10:41:44;;;;;;;5.00;2.00;;;;;;;;;;5033667;28;20113;-67
2021/07/15 10:44:10;;;;;;;5.75;1.92;;;;;;;;;;5033799;28;20033;-70
2021/07/15 10:46:37;;;;;;;4.97;1.40;;;35.60;46.30;;;;;;5032858;28;20433;-70
2021/07/15 10:49:07;;;;;;;3.75;1.40;;;35.60;45.90;;;;;;5033581;28;20021;-67
2021/07/15 10:51:37;;;;;;;7.83;1.50;;;35.70;47.40;;;;;;5033592;28;20369;-69
2021/07/15 10:54:04;;;;;;;5.07;1.42;;;35.70;44.90;;;;;;5033566;28;20029;-69
2021/07/15 10:56:31;;;;;;;6.10;1.55;;;35.50;45.40;;;;;;5033251;28;20041;-69
2021/07/15 10:58:57;;;;;;;5.13;1.45;;;36.20;45.90;;;;;;5033485;28;20478;-70
2021/07/15 11:01:32;;;;;;;4.50;1.42;;;36.30;46.40;;;;;;5033437;28;20049;-68
2021/07/15 11:04:15;;;;;;;3.63;1.50;;;36.70;45.70;;;;;;5032097;28;20025;-69
2021/07/15 11:06:52;;;;;;;8.15;1.88;;;36.70;43.70;;;;;;5032092;28;20053;-67
2021/07/15 11:09:28;;;;;;;2.75;1.50;;;38.10;44.10;;;;;;5033410;28;20485;-67
2021/07/15 11:11:55;;;;;;;5.82;1.48;;;37.70;43.40;;;;;;5033419;28;20046;-67
2021/07/15 11:14:49;;;;;;;5.53;1.98;;;38.30;43.80;;;;;;5033423;28;20017;-69
2021/07/15 11:17:21;;;;;;;7.18;1.52;;;39.00;44.40;;;;;;5033392;28;20026;-71
2021/07/15 11:20:06;;;;;;;4.03;1.55;;;39.10;43.30;;;;;;5033282;28;20037;-69
2021/07/15 11:22:42;;;;;;;4.90;1.63;;;38.90;43.70;;;;;;5033359;28;20131;-70
2021/07/15 11:25:18;;;;;;;4.78;1.38;;;39.50;43.10;;;;;;5033582;28;20076;-70
2021/07/15 11:27:46;;;;;;;6.65;1.95;;;;;;;;;;5034581;28;20068;-71
2021/07/15 11:30:14;;;;;;;5.93;1.70;;;;;;;;;;5036390;28;20405;-69
2021/07/15 11:32:41;;;;;;;4.00;1.85;;;;;;;;;;5037457;28;20025;-69
2021/07/15 11:35:26;;;;;;;3.85;1.40;;;;;;;;;;5037586;28;20080;-71
2021/07/15 11:38:05;;;;;;;5.50;1.80;;;;;;;;;;5037290;28;20061;-70
2021/07/15 11:40:37;;;;;;;5.47;2.05;;;;;;;;;;5037592;28;20018;-70
2021/07/15 11:43:25;;;;;;;5.30;1.58;;;;;;;;;;5036809;28;20030;-69
2021/07/15 11:46:17;;;;;;;2.80;1.52;;;;;;;;;;5036332;28;20132;-69
2021/07/15 11:48:44;;;;;;;4.53;1.60;;;;;;;;;;5033650;28;20033;-70
2021/07/15 11:51:39;;;;;;;3.33;1.90;;;;;;;;;;5036474;28;20539;-69
2021/07/15 11:54:28;;;;;;;4.47;1.88;;;;;;;;;;5023451;28;20034;-67
2021/07/15 11:56:57;;;;;;;6.63;1.98;;;;;;;;;;5028138;28;20046;-68
2021/07/15 11:59:34;;;;;;;5.78;1.60;;;;;;;;;;5036318;28;20662;-70
2021/07/15 12:02:22;;;;;;;3.30;1.50;;;;;;;;;;5036220;28;20026;-69
2021/07/15 12:05:12;;;;;;;6.97;1.80;;;;;;;;;;5036256;28;20036;-66
2021/07/15 12:07:39;;;;;;;;;;;;;;;;;;5036316;28;20427;-70
2021/07/15 12:10:07;;;;;;;4.65;2.15;;;;;;;;;;5036009;28;19909;-66
2021/07/15 12:12:34;;;;;;;7.70;2.30;;;;;;;;;;5035979;28;20028;-68
2021/07/15 12:15:00;;;;;;;7.40;1.88;;;;;;;;;;5036074;28;20061;-67
2021/07/15 12:17:30;;;;;;;13.88;2.90;;;;;;;;;;5035910;28;20060;-69
2021/07/15 12:19:57;;;;;;;5.88;1.80;;;;;;;;;;5035939;28;20025;-71
2021/07/15 12:22:24;;;;;;;7.93;1.98;;;;;;;;;;5035932;28;20024;-67
2021/07/15 12:25:06;;;;;;;5.50;2.00;;;;;;;;;;5036147;28;20124;-67
2021/07/15 12:27:39;;;;;;;4.47;2.00;;;;;;;;;;5036120;28;20026;-69
2021/07/15 12:30:06;;;;;;;13.15;3.25;;;;;;;;;;5035715;28;20025;-68
2021/07/15 12:32:33;;;;;;;4.40;2.78;;;;;;;;;;5035942;28;20028;-68
2021/07/15 12:34:59;;;;;;;9.18;2.80;;;;;;;;;;5035577;28;20171;-70
2021/07/15 12:37:30;;;;;;;6.03;1.73;;;;;;;;;;5034296;28;20021;-68
2021/07/15 12:39:57;;;;;;;8.20;2.10;;;;;;;;;;5035509;28;20021;-67
2021/07/15 12:42:23;;;;;;;4.15;2.15;;;;;;;;;;5035624;28;20013;-68
2021/07/15 12:44:50;;;;;;;17.67;2.40;;;;;;;;;;5035529;28;20080;-68
2021/07/15 12:47:16;;;;;;;8.13;2.03;;;;;;;;;;5034979;28;20045;-65
2021/07/15 12:49:42;;;;;;;5.32;1.90;;;;;;;;;;5035415;28;20112;-67
2021/07/15 12:52:09;;;;;;;8.52;2.47;;;;;;;;;;5035306;28;20048;-67
2021/07/15 12:54:38;;;;;;;5.45;2.08;;;;;;;;;;5035161;28;20065;-67
2021/07/15 12:57:09;;;;;;;8.97;2.17;;;;;;;;;;5035235;28;20079;-68
2021/07/15 12:59:36;;;;;;;28.73;2.75;;;;;;;;;;5035494;28;20021;-66
2021/07/15 13:02:02;;;;;;;4.63;2.58;;;;;;;;;;5033683;28;20033;-69
2021/07/15 13:04:32;;;;;;;7.97;2.50;;;;;;;;;;5035158;28;20025;-69
2021/07/15 13:07:04;;;;;;;11.18;2.58;;;;;;;;;;5035168;28;20079;-68
2021/07/15 13:14:48;;;;;;;5.75;2.03;;;;;;;;;;5034665;28;20076;-69
2021/07/15 13:17:15;;;;;;;13.20;2.78;;;;;;;;;;5034847;28;20064;-71
2021/07/15 13:19:43;;;;;;;11.50;2.50;;;;;;;;;;5034755;28;20143;-70
2021/07/15 13:22:11;;;;;;;12.23;2.85;;;;;;;;;;5034742;28;20026;-69
2021/07/15 13:24:38;;;;;;;7.50;2.88;;;;;;;;;;5034802;28;20026;-69
2021/07/15 13:27:11;;;;;;;8.60;2.42;;;47.00;34.80;;;;;;5034871;28;20029;-68
2021/07/15 13:29:37;;;;;;;10.35;2.25;;;47.10;35.70;;;;;;5034542;28;20060;-68
2021/07/15 13:32:12;;;;;;;6.07;2.17;;;47.90;35.70;;;;;;5033523;28;20055;-68
2021/07/15 13:34:39;;;;;;;11.35;2.00;;;;;;;;;;5034487;28;20029;-69
2021/07/15 13:37:05;;;;;;;7.63;2.47;;;48.30;57.00;;;;;;5034482;28;20068;-68
2021/07/15 13:39:34;;;;;;;6.15;2.47;;;48.40;41.20;;;;;;5034382;28;20462;-68
2021/07/15 13:42:00;;;;;;;12.65;2.47;;;48.80;35.00;;;;;;5034320;28;20083;-67
2021/07/15 13:44:26;;;;;;;11.45;2.70;;;;;;;;;;5033819;28;20113;-68
2021/07/15 13:47:06;;;;;;;5.47;2.17;;;47.40;34.30;;;;;;5032764;28;20046;-68
2021/07/15 13:49:33;;;;;;;;;;;48.10;35.50;;;;;;5034731;28;20034;-67
2021/07/15 13:52:08;;;;;;;9.13;2.70;;;47.90;34.80;;;;;;5033892;28;20059;-67
2021/07/15 13:54:34;;;;;;;9.13;2.65;;;48.30;36.30;;;;;;5033978;28;20037;-67
2021/07/15 13:57:11;;;;;;;9.18;2.45;;;48.00;35.30;;;;;;5034170;28;20021;-68
2021/07/15 13:59:39;;;;;;;5.82;2.30;;;48.10;34.60;;;;;;5034080;28;20123;-67
2021/07/15 14:02:14;;;;;;;5.30;2.40;;;48.90;35.10;;;;;;5034351;28;20532;-66
2021/07/15 14:04:42;;;;;;;7.43;2.30;;;49.20;34.30;;;;;;5033963;28;20053;-69
2021/07/15 14:07:09;;;;;;;8.30;2.42;;;48.90;34.70;;;;;;5034285;28;20033;-69
2021/07/15 14:09:37;;;;;;;8.82;2.50;;;49.30;34.50;;;;;;5033908;28;20048;-69
2021/07/15 14:12:07;;;;;;;13.52;3.10;;;49.30;34.40;;;;;;5033885;28;20083;-69
2021/07/15 14:14:36;;;;;;;7.55;2.53;;;49.00;34.90;;;;;;5033820;28;20029;-70
2021/07/15 14:17:03;;;;;;;12.55;2.90;;;49.40;34.50;;;;;;5033859;28;20029;-68
2021/07/15 14:19:29;;;;;;;10.10;2.50;;;49.60;34.40;;;;;;5033804;28;20220;-69
2021/07/15 14:21:56;;;;;;;7.47;2.00;;;49.30;34.80;;;;;;5033986;28;20028;-69
2021/07/15 14:24:22;;;;;;;7.95;2.60;;;49.70;34.30;;;;;;5033766;28;20034;-68
2021/07/15 14:26:57;;;;;;;9.07;2.38;;;49.50;34.80;;;;;;5033910;28;20029;-68
2021/07/15 14:29:25;;;;;;;11.23;2.60;;;49.40;35.00;;;;;;5033871;28;20022;-68
2021/07/15 14:31:52;;;;;;;7.20;2.50;;;49.10;34.40;;;;;;5033680;28;20026;-69
2021/07/15 14:34:18;;;;;;;7.88;2.95;;;49.00;36.30;;;;;;5033610;28;20025;-69
2021/07/15 14:36:44;;;;;;;10.45;2.60;;;48.50;35.20;;;;;;5033715;28;20037;-68
2021/07/15 14:39:10;;;;;;;11.80;2.88;;;48.30;36.10;;;;;;5033712;28;20029;-69